createdAt,value
2023-04-15T00:01:49.858Z,2.20
2023-04-15T00:04:17.241Z,2.10
2023-04-15T00:06:51.724Z,1.90
2023-04-15T00:09:19.795Z,2.47
2023-04-15T00:11:47.015Z,2.15
2023-04-15T00:14:14.287Z,2.15
2023-04-15T00:16:41.689Z,2.42
2023-04-15T00:19:08.771Z,1.73
2023-04-15T00:21:36.039Z,2.70
2023-04-15T00:24:03.977Z,2.28
2023-04-15T00:26:31.088Z,2.28
2023-04-15T00:28:58.730Z,3.22
2023-04-15T00:31:26.169Z,2.83
2023-04-15T00:33:53.366Z,3.50
2023-04-15T00:36:23.552Z,3.35
2023-04-15T00:38:50.847Z,3.65
2023-04-15T00:41:19.533Z,4.28
2023-04-15T00:43:46.798Z,5.32
2023-04-15T00:46:17.869Z,6.38
2023-04-15T00:48:46.145Z,8.05
2023-04-15T00:51:16.333Z,9.32
2023-04-15T00:53:43.962Z,8.35
2023-04-15T00:56:11.087Z,9.48
2023-04-15T00:58:38.413Z,8.90
2023-04-15T01:01:05.739Z,8.93
2023-04-15T01:03:33.373Z,7.80
2023-04-15T01:06:03.765Z,9.52
2023-04-15T01:08:32.021Z,7.35
2023-04-15T01:11:01.799Z,4.10
2023-04-15T01:13:30.786Z,2.40
2023-04-15T01:15:58.326Z,1.80
2023-04-15T01:18:26.127Z,1.20
2023-04-15T01:20:53.503Z,1.30
2023-04-15T01:23:24.633Z,1.55
2023-04-15T01:25:53.650Z,1.67
2023-04-15T01:28:20.788Z,1.98
2023-04-15T01:30:48.719Z,1.50
2023-04-15T01:33:16.273Z,1.60
2023-04-15T01:35:44.659Z,1.25
2023-04-15T01:38:12.602Z,1.55
2023-04-15T01:40:41.032Z,1.35
2023-04-15T01:43:08.484Z,1.48
2023-04-15T01:45:35.518Z,1.52
2023-04-15T01:48:04.618Z,1.48
2023-04-15T01:50:31.686Z,1.35
2023-04-15T01:52:58.900Z,1.50
2023-04-15T01:55:26.320Z,1.88
2023-04-15T01:57:53.462Z,1.50
2023-04-15T02:00:22.501Z,1.27
2023-04-15T02:02:49.984Z,1.65
2023-04-15T02:05:17.130Z,1.40
2023-04-15T02:07:48.648Z,1.02
2023-04-15T02:10:16.925Z,1.10
2023-04-15T02:12:44.425Z,1.30
2023-04-15T02:15:12.014Z,1.02
2023-04-15T02:17:39.229Z,1.17
2023-04-15T02:20:11.646Z,1.83
2023-04-15T02:22:38.765Z,1.35
2023-04-15T02:25:06.374Z,1.55
2023-04-15T02:27:33.528Z,1.17
2023-04-15T02:30:00.760Z,1.25
2023-04-15T02:32:29.154Z,1.48
2023-04-15T02:34:56.456Z,1.27
2023-04-15T02:37:24.927Z,1.48
2023-04-15T02:39:52.127Z,1.20
2023-04-15T02:42:21.737Z,1.40
2023-04-15T02:44:50.183Z,1.77
2023-04-15T02:47:18.332Z,2.13
2023-04-15T02:49:45.556Z,2.78
2023-04-15T02:52:12.725Z,2.50
2023-04-15T02:54:39.920Z,2.97
2023-04-15T02:57:07.017Z,2.60
2023-04-15T02:59:34.483Z,2.47
2023-04-15T03:02:01.776Z,1.90
2023-04-15T03:04:30.312Z,1.92
2023-04-15T03:06:57.622Z,1.65
2023-04-15T03:09:25.986Z,1.85
2023-04-15T03:11:54.956Z,1.95
2023-04-15T03:14:22.839Z,2.05
2023-04-15T03:16:50.840Z,1.90
2023-04-15T03:19:18.920Z,2.47
2023-04-15T03:21:45.977Z,2.63
2023-04-15T03:24:14.140Z,2.38
2023-04-15T03:26:41.332Z,2.30
2023-04-15T03:29:15.309Z,2.13
2023-04-15T03:31:42.894Z,1.70
2023-04-15T03:34:09.977Z,1.60
2023-04-15T03:36:37.370Z,1.40
2023-04-15T03:39:04.558Z,1.40
2023-04-15T03:41:33.078Z,1.38
2023-04-15T03:44:00.381Z,1.50
2023-04-15T03:46:28.075Z,1.50
2023-04-15T03:48:55.217Z,1.10
2023-04-15T03:51:22.433Z,1.30
2023-04-15T03:53:49.472Z,1.77
2023-04-15T03:56:16.606Z,1.20
2023-04-15T03:58:43.791Z,1.48
2023-04-15T04:01:10.849Z,1.10
2023-04-15T04:03:38.094Z,1.52
2023-04-15T04:06:05.395Z,1.20
2023-04-15T04:08:32.614Z,1.35
2023-04-15T04:10:59.746Z,1.02
2023-04-15T04:13:26.835Z,1.23
2023-04-15T04:15:53.839Z,1.30
2023-04-15T04:18:21.122Z,1.25
2023-04-15T04:20:48.244Z,1.27
2023-04-15T04:23:15.412Z,1.83
2023-04-15T04:25:42.586Z,1.23
2023-04-15T04:28:09.763Z,1.50
2023-04-15T04:30:37.036Z,1.42
2023-04-15T04:33:04.219Z,1.48
2023-04-15T04:35:33.835Z,1.42
2023-04-15T04:38:01.802Z,1.27
2023-04-15T04:40:29.035Z,2.30
2023-04-15T04:42:56.381Z,1.50
2023-04-15T04:45:23.825Z,2.33
2023-04-15T04:47:51.012Z,2.10
2023-04-15T04:50:18.146Z,2.05
2023-04-15T04:52:45.434Z,1.95
2023-04-15T04:55:12.615Z,1.98
2023-04-15T04:57:39.845Z,1.75
2023-04-15T05:00:09.207Z,2.65
2023-04-15T05:02:36.996Z,1.85
2023-04-15T05:05:04.500Z,1.95
2023-04-15T05:07:31.982Z,1.42
2023-04-15T05:09:59.164Z,1.45
2023-04-15T05:12:26.389Z,1.40
2023-04-15T05:14:53.584Z,1.77
2023-04-15T05:17:20.971Z,2.00
2023-04-15T05:19:48.376Z,1.80
2023-04-15T05:22:15.630Z,1.65
2023-04-15T05:24:42.805Z,1.90
2023-04-15T05:27:11.778Z,2.13
2023-04-15T05:29:38.941Z,6.32
2023-04-15T05:32:06.350Z,5.75
2023-04-15T05:34:33.688Z,5.93
2023-04-15T05:37:00.894Z,4.25
2023-04-15T05:39:28.091Z,4.03
2023-04-15T05:41:55.169Z,3.47
2023-04-15T05:44:22.289Z,2.70
2023-04-15T05:46:49.307Z,3.05
2023-04-15T05:49:16.561Z,4.55
2023-04-15T05:51:43.621Z,4.97
2023-04-15T05:54:10.972Z,3.92
2023-04-15T05:56:38.044Z,4.43
2023-04-15T05:59:06.892Z,3.30
2023-04-15T06:01:34.525Z,3.58
2023-04-15T06:04:02.095Z,3.45
2023-04-15T06:06:29.282Z,2.33
2023-04-15T06:08:56.403Z,2.97
2023-04-15T06:11:23.485Z,3.38
2023-04-15T06:13:50.736Z,2.28
2023-04-15T06:16:17.772Z,2.40
2023-04-15T06:18:45.014Z,2.30
2023-04-15T06:21:12.065Z,2.95
2023-04-15T06:23:41.278Z,2.65
2023-04-15T06:26:08.735Z,1.90
2023-04-15T06:28:36.059Z,2.30
2023-04-15T06:31:03.757Z,2.50
2023-04-15T06:33:30.891Z,1.60
2023-04-15T06:35:58.111Z,2.15
2023-04-15T06:38:25.116Z,2.25
2023-04-15T06:40:52.626Z,2.20
2023-04-15T06:43:20.345Z,2.38
2023-04-15T06:45:47.593Z,3.03
2023-04-15T06:48:14.683Z,2.15
2023-04-15T06:50:41.956Z,2.20
2023-04-15T06:53:09.035Z,2.47
2023-04-15T06:55:36.094Z,2.15
2023-04-15T06:58:03.163Z,2.00
2023-04-15T07:00:30.690Z,1.75
2023-04-15T07:02:58.030Z,1.90
2023-04-15T07:05:25.588Z,1.60
2023-04-15T07:07:53.271Z,1.73
2023-04-15T07:10:20.556Z,2.35
2023-04-15T07:12:48.855Z,1.88
2023-04-15T07:15:16.027Z,2.13
2023-04-15T07:17:46.090Z,1.80
2023-04-15T07:20:13.359Z,2.38
2023-04-15T07:22:40.981Z,2.10
2023-04-15T07:25:09.199Z,3.08
2023-04-15T07:27:36.480Z,2.40
2023-04-15T07:30:03.814Z,1.80
2023-04-15T07:32:31.317Z,2.35
2023-04-15T07:34:58.541Z,1.70
2023-04-15T07:37:25.773Z,2.63
2023-04-15T07:39:53.317Z,2.95
2023-04-15T07:42:20.530Z,2.10
2023-04-15T07:44:47.703Z,1.88
2023-04-15T07:47:14.920Z,2.28
2023-04-15T07:49:43.681Z,2.30
2023-04-15T07:52:11.296Z,2.10
2023-04-15T07:54:38.365Z,2.20
2023-04-15T07:57:05.650Z,1.83
2023-04-15T07:59:33.705Z,1.83
2023-04-15T08:02:01.067Z,1.88
2023-04-15T08:04:28.699Z,1.75
2023-04-15T08:06:55.905Z,1.85
2023-04-15T08:09:23.005Z,1.90
2023-04-15T08:11:51.358Z,1.90
2023-04-15T08:14:18.470Z,2.28
2023-04-15T08:16:45.584Z,1.85
2023-04-15T08:19:12.758Z,1.70
2023-04-15T08:21:40.772Z,1.95
2023-04-15T08:24:08.288Z,1.95
2023-04-15T08:26:35.749Z,2.08
2023-04-15T08:29:03.065Z,2.25
2023-04-15T08:31:30.854Z,2.10
2023-04-15T08:33:58.274Z,2.03
2023-04-15T08:36:25.689Z,2.42
2023-04-15T08:38:52.787Z,2.33
2023-04-15T08:41:24.701Z,2.35
2023-04-15T08:43:58.109Z,2.40
2023-04-15T08:46:25.791Z,2.20
2023-04-15T08:48:55.766Z,2.83
2023-04-15T08:51:24.553Z,2.30
2023-04-15T08:53:52.801Z,3.00
2023-04-15T08:56:24.551Z,2.53
2023-04-15T08:58:52.749Z,2.95
2023-04-15T09:01:20.602Z,2.58
2023-04-15T09:03:50.716Z,2.50
2023-04-15T09:06:18.543Z,2.40
2023-04-15T09:08:46.102Z,2.10
2023-04-15T09:11:13.566Z,2.38
2023-04-15T09:13:40.725Z,2.80
2023-04-15T09:16:08.634Z,2.60
2023-04-15T09:18:39.914Z,2.10
2023-04-15T09:21:14.191Z,2.38
2023-04-15T09:23:54.430Z,2.22
2023-04-15T09:26:31.806Z,2.22
2023-04-15T09:29:15.502Z,2.10
2023-04-15T09:31:43.943Z,2.45
2023-04-15T09:34:12.040Z,2.50
2023-04-15T09:36:54.684Z,1.90
2023-04-15T09:39:23.473Z,2.20
2023-04-15T09:42:07.670Z,2.60
2023-04-15T09:44:35.191Z,2.65
2023-04-15T09:47:02.473Z,2.53
2023-04-15T09:49:29.885Z,2.45
2023-04-15T09:52:06.308Z,2.30
2023-04-15T09:54:36.485Z,2.25
2023-04-15T09:57:09.062Z,1.80
2023-04-15T09:59:36.448Z,2.95
2023-04-15T10:02:07.745Z,1.80
2023-04-15T10:04:40.000Z,2.17
2023-04-15T10:07:09.899Z,2.20
2023-04-15T10:09:38.941Z,1.95
2023-04-15T10:12:06.297Z,1.92
2023-04-15T10:14:35.788Z,2.08
2023-04-15T10:17:05.745Z,2.17
2023-04-15T10:19:34.696Z,2.03
2023-04-15T10:22:02.352Z,2.90
2023-04-15T10:24:34.355Z,2.47
2023-04-15T10:27:04.493Z,2.10
2023-04-15T10:29:31.880Z,2.00
2023-04-15T10:32:03.351Z,2.55
2023-04-15T10:34:31.428Z,2.08
2023-04-15T10:37:03.860Z,2.20
2023-04-15T10:39:37.764Z,1.90
2023-04-15T10:42:08.922Z,2.25
2023-04-15T10:44:41.789Z,1.80
2023-04-15T10:47:19.132Z,1.67
2023-04-15T10:49:58.175Z,2.03
2023-04-15T10:52:27.801Z,2.10
2023-04-15T10:55:19.408Z,2.28
2023-04-15T10:57:46.512Z,2.10
2023-04-15T11:00:14.865Z,1.65
2023-04-15T11:03:08.445Z,2.03
2023-04-15T11:05:42.515Z,2.33
2023-04-15T11:08:11.994Z,2.13
2023-04-15T11:10:39.798Z,2.65
2023-04-15T11:13:11.551Z,2.60
2023-04-15T11:15:41.830Z,3.22
2023-04-15T11:18:13.122Z,2.53
2023-04-15T11:20:42.256Z,3.30
2023-04-15T11:23:14.930Z,2.88
2023-04-15T11:28:13.182Z,3.00
2023-04-15T11:30:41.111Z,2.45
2023-04-15T11:33:10.709Z,2.78
2023-04-15T11:35:38.609Z,2.20
2023-04-15T11:38:08.916Z,2.10
2023-04-15T11:40:36.586Z,2.75
2023-04-15T11:43:09.437Z,2.75
2023-04-15T11:45:38.591Z,2.60
2023-04-15T11:48:10.131Z,2.20
2023-04-15T11:50:40.905Z,1.98
2023-04-15T11:53:10.070Z,2.10
2023-04-15T11:55:50.645Z,2.30
2023-04-15T11:58:26.880Z,2.72
2023-04-15T12:00:59.031Z,2.53
2023-04-15T12:03:27.686Z,2.33
2023-04-15T12:06:11.810Z,3.08
2023-04-15T12:09:06.903Z,2.38
2023-04-15T12:11:43.000Z,2.00
2023-04-15T12:14:28.677Z,2.85
2023-04-15T12:17:00.539Z,2.20
2023-04-15T12:19:32.093Z,1.90
2023-04-15T12:22:04.350Z,1.95
2023-04-15T12:24:33.893Z,2.63
2023-04-15T12:27:04.995Z,2.20
2023-04-15T12:29:33.249Z,2.20
2023-04-15T12:32:22.180Z,1.70
2023-04-15T12:34:54.627Z,2.00
2023-04-15T12:37:22.628Z,1.75
2023-04-15T12:39:51.369Z,1.90
2023-04-15T12:42:19.941Z,2.15
2023-04-15T12:44:47.617Z,2.15
2023-04-15T12:47:15.589Z,1.75
2023-04-15T12:49:43.038Z,2.17
2023-04-15T12:52:10.983Z,2.22
2023-04-15T12:54:38.678Z,2.10
2023-04-15T12:57:07.427Z,2.25
2023-04-15T12:59:36.415Z,1.90
2023-04-15T13:02:04.913Z,2.00
2023-04-15T13:04:32.784Z,1.83
2023-04-15T13:07:00.781Z,1.60
2023-04-15T13:09:28.313Z,2.05
2023-04-15T13:11:57.752Z,1.25
2023-04-15T13:14:26.033Z,1.38
2023-04-15T13:16:54.196Z,1.73
2023-04-15T13:19:21.660Z,1.60
2023-04-15T13:21:48.974Z,1.30
2023-04-15T13:24:17.634Z,1.65
2023-04-15T13:26:45.034Z,1.55
2023-04-15T13:29:13.974Z,1.40
2023-04-15T13:31:41.296Z,1.52
2023-04-15T13:34:08.668Z,1.65
2023-04-15T13:36:36.109Z,1.75
2023-04-15T13:39:03.765Z,1.92
2023-04-15T13:41:30.853Z,1.60
2023-04-15T13:43:58.815Z,1.88
2023-04-15T13:46:26.454Z,1.85
2023-04-15T13:48:53.863Z,1.60
2023-04-15T13:51:21.040Z,1.60
2023-04-15T13:53:48.324Z,2.08
2023-04-15T13:56:15.571Z,1.60
2023-04-15T13:58:42.854Z,1.63
2023-04-15T14:01:10.068Z,2.00
2023-04-15T14:03:38.370Z,1.90
2023-04-15T14:06:06.735Z,1.75
2023-04-15T14:08:34.446Z,2.25
2023-04-15T14:11:01.589Z,3.88
2023-04-15T14:13:28.807Z,2.30
2023-04-15T14:15:57.623Z,2.10
2023-04-15T14:18:25.090Z,2.20
2023-04-15T14:20:52.266Z,2.50
2023-04-15T14:23:19.478Z,2.13
2023-04-15T14:25:48.270Z,2.80
2023-04-15T14:28:16.261Z,1.92
2023-04-15T14:30:43.982Z,2.13
2023-04-15T14:33:11.432Z,2.10
2023-04-15T14:35:39.360Z,1.98
2023-04-15T14:38:10.855Z,2.28
2023-04-15T14:40:38.412Z,2.00
2023-04-15T14:43:06.318Z,2.58
2023-04-15T14:45:34.754Z,2.15
2023-04-15T14:48:02.678Z,2.38
2023-04-15T14:50:30.087Z,2.00
2023-04-15T14:52:57.221Z,2.17
2023-04-15T14:55:24.328Z,1.83
2023-04-15T14:57:51.476Z,1.63
2023-04-15T15:00:19.607Z,1.23
2023-04-15T15:02:49.145Z,1.70
2023-04-15T15:05:16.622Z,1.90
2023-04-15T15:07:43.979Z,1.80
2023-04-15T15:10:11.124Z,1.70
2023-04-15T15:12:38.200Z,1.50
2023-04-15T15:15:15.469Z,1.77
2023-04-15T15:17:47.462Z,2.35
2023-04-15T15:20:14.888Z,1.95
2023-04-15T15:22:42.124Z,1.30
2023-04-15T15:25:09.348Z,1.70
2023-04-15T15:27:38.217Z,2.60
2023-04-15T15:30:07.085Z,2.08
2023-04-15T15:32:34.555Z,1.77
2023-04-15T15:35:01.825Z,2.10
2023-04-15T15:37:31.163Z,2.08
2023-04-15T15:39:58.318Z,2.13
2023-04-15T15:42:25.726Z,1.92
2023-04-15T15:44:55.594Z,1.70
2023-04-15T15:47:23.313Z,1.55
2023-04-15T15:49:50.576Z,1.70
2023-04-15T15:52:17.695Z,1.90
2023-04-15T15:54:44.757Z,2.28
2023-04-15T15:57:11.923Z,1.60
2023-04-15T15:59:41.388Z,2.75
2023-04-15T16:02:12.852Z,1.70
2023-04-15T16:04:40.952Z,3.33
2023-04-15T16:07:08.124Z,1.90
2023-04-15T16:09:35.673Z,2.30
2023-04-15T16:12:04.071Z,2.10
2023-04-15T16:14:31.388Z,1.45
2023-04-15T16:16:58.525Z,1.55
2023-04-15T16:19:25.694Z,1.73
2023-04-15T16:21:53.083Z,2.10
2023-04-15T16:24:20.297Z,1.90
2023-04-15T16:26:47.599Z,2.15
2023-04-15T16:29:14.853Z,2.03
2023-04-15T16:31:42.445Z,1.70
2023-04-15T16:34:09.966Z,1.98
2023-04-15T16:36:37.152Z,1.83
2023-04-15T16:39:04.738Z,1.33
2023-04-15T16:41:34.316Z,2.03
2023-04-15T16:44:03.579Z,1.60
2023-04-15T16:46:31.166Z,1.75
2023-04-15T16:48:58.583Z,1.90
2023-04-15T16:51:26.661Z,1.77
2023-04-15T16:53:53.833Z,1.67
2023-04-15T16:56:22.221Z,2.10
2023-04-15T16:58:49.527Z,2.33
2023-04-15T17:01:16.745Z,1.70
2023-04-15T17:03:44.090Z,1.65
2023-04-15T17:06:11.337Z,2.33
2023-04-15T17:08:38.639Z,2.13
2023-04-15T17:11:06.613Z,1.83
2023-04-15T17:13:34.573Z,2.17
2023-04-15T17:16:03.137Z,2.80
2023-04-15T17:18:31.575Z,1.80
2023-04-15T17:20:59.781Z,2.20
2023-04-15T17:23:27.812Z,2.28
2023-04-15T17:25:56.683Z,2.13
2023-04-15T17:28:24.453Z,2.20
2023-04-15T17:30:52.184Z,2.53
2023-04-15T17:34:01.042Z,2.10
2023-04-15T17:36:08.028Z,2.25
2023-04-15T17:38:35.560Z,2.03
2023-04-15T17:41:02.850Z,2.40
2023-04-15T17:43:38.717Z,2.53
2023-04-15T17:46:08.019Z,2.50
2023-04-15T17:48:35.639Z,2.10
2023-04-15T17:51:03.074Z,2.38
2023-04-15T17:53:30.273Z,2.67
2023-04-15T17:55:58.665Z,2.58
2023-04-15T17:58:27.642Z,2.40
2023-04-15T18:00:55.089Z,2.35
2023-04-15T18:03:22.909Z,3.05
2023-04-15T18:05:50.932Z,2.67
2023-04-15T18:08:18.352Z,2.65
2023-04-15T18:10:45.606Z,3.20
2023-04-15T18:13:13.016Z,2.70
2023-04-15T18:15:40.395Z,2.75
2023-04-15T18:18:07.505Z,3.13
2023-04-15T18:20:34.829Z,3.28
2023-04-15T18:23:01.961Z,3.28
2023-04-15T18:25:30.189Z,3.33
2023-04-15T18:27:57.433Z,3.60
2023-04-15T18:30:24.596Z,3.17
2023-04-15T18:32:51.856Z,3.40
2023-04-15T18:35:19.183Z,3.75
2023-04-15T18:37:46.342Z,3.25
2023-04-15T18:40:13.540Z,3.17
2023-04-15T18:42:40.768Z,2.90
2023-04-15T18:45:08.350Z,2.92
2023-04-15T18:47:35.620Z,2.85
2023-04-15T18:50:02.912Z,2.55
2023-04-15T18:52:30.679Z,3.58
2023-04-15T18:54:58.087Z,4.03
2023-04-15T18:57:32.365Z,2.67
2023-04-15T19:00:02.968Z,4.65
2023-04-15T19:02:30.394Z,4.82
2023-04-15T19:04:57.694Z,6.03
2023-04-15T19:07:25.280Z,5.20
2023-04-15T19:09:53.512Z,4.78
2023-04-15T19:12:20.811Z,5.40
2023-04-15T19:14:48.356Z,4.90
2023-04-15T19:17:16.098Z,4.43
2023-04-15T19:19:44.254Z,3.92
2023-04-15T19:22:12.423Z,3.85
2023-04-15T19:24:40.856Z,3.03
2023-04-15T19:27:09.578Z,3.20
2023-04-15T19:29:37.215Z,3.95
2023-04-15T19:32:05.867Z,3.60
2023-04-15T19:34:33.155Z,3.40
2023-04-15T19:37:01.084Z,3.10
2023-04-15T19:39:28.492Z,3.42
2023-04-15T19:41:56.114Z,2.90
2023-04-15T19:44:23.176Z,2.70
2023-04-15T19:46:51.696Z,3.28
2023-04-15T19:49:20.633Z,2.65
2023-04-15T19:51:51.222Z,2.75
2023-04-15T19:54:18.742Z,2.72
2023-04-15T19:56:45.994Z,2.72
2023-04-15T19:59:13.169Z,2.67
2023-04-15T20:01:40.621Z,3.00
2023-04-15T20:04:08.067Z,3.13
2023-04-15T20:06:35.432Z,3.20
2023-04-15T20:09:03.119Z,3.72
2023-04-15T20:12:44.873Z,3.28
2023-04-15T20:14:19.313Z,3.28
2023-04-15T20:16:47.019Z,3.20
2023-04-15T20:19:14.875Z,3.72
2023-04-15T20:21:42.515Z,3.95
2023-04-15T20:24:10.037Z,3.80
2023-04-15T20:26:37.550Z,3.40
2023-04-15T20:29:05.449Z,3.70
2023-04-15T20:31:34.156Z,3.88
2023-04-15T20:34:01.442Z,3.88
2023-04-15T20:36:28.770Z,3.22
2023-04-15T20:38:55.933Z,3.50
2023-04-15T20:41:23.406Z,2.65
2023-04-15T20:43:50.579Z,2.83
2023-04-15T20:46:21.473Z,2.17
2023-04-15T20:48:49.186Z,2.45
2023-04-15T20:51:16.688Z,2.50
2023-04-15T20:53:43.749Z,2.30
2023-04-15T20:56:11.077Z,2.33
2023-04-15T20:58:38.866Z,2.50
2023-04-15T21:01:06.368Z,2.45
2023-04-15T21:03:33.746Z,3.28
2023-04-15T21:06:01.132Z,2.90
2023-04-15T21:08:31.718Z,2.35
2023-04-15T21:10:59.482Z,2.70
2023-04-15T21:13:26.751Z,2.80
2023-04-15T21:15:54.559Z,2.60
2023-04-15T21:18:22.579Z,2.67
2023-04-15T21:20:59.413Z,2.63
2023-04-15T21:23:28.888Z,2.67
2023-04-15T21:25:57.002Z,2.80
2023-04-15T21:28:24.257Z,2.90
2023-04-15T21:30:51.390Z,2.83
2023-04-15T21:33:20.451Z,2.53
2023-04-15T21:35:47.433Z,2.65
2023-04-15T21:38:14.924Z,2.35
2023-04-15T21:40:42.034Z,2.67
2023-04-15T21:43:09.497Z,2.42
2023-04-15T21:45:39.464Z,2.63
2023-04-15T21:48:08.127Z,2.40
2023-04-15T21:50:38.915Z,2.00
2023-04-15T21:53:08.316Z,2.13
2023-04-15T21:55:36.237Z,2.25
2023-04-15T21:58:03.546Z,3.25
2023-04-15T22:00:30.764Z,2.78
2023-04-15T22:02:57.975Z,2.45
2023-04-15T22:05:26.251Z,2.08
2023-04-15T22:07:53.440Z,2.47
2023-04-15T22:10:21.057Z,2.85
2023-04-15T22:12:48.099Z,2.13
2023-04-15T22:15:17.002Z,1.90
2023-04-15T22:17:44.148Z,2.30
2023-04-15T22:20:11.413Z,2.65
2023-04-15T22:22:43.941Z,2.28
2023-04-15T22:27:39.269Z,1.98
2023-04-15T22:30:07.221Z,2.15
2023-04-15T22:32:34.349Z,2.42
2023-04-15T22:35:02.507Z,1.95
2023-04-15T22:37:32.095Z,2.42
2023-04-15T22:39:59.754Z,2.50
2023-04-15T22:42:26.801Z,2.15
2023-04-15T22:44:53.863Z,2.10
2023-04-15T22:47:20.975Z,2.13
2023-04-15T22:49:48.278Z,2.10
2023-04-15T22:52:29.407Z,2.53
2023-04-15T22:54:57.913Z,2.47
2023-04-15T22:57:25.171Z,2.80
2023-04-15T22:59:52.247Z,2.20
2023-04-15T23:02:19.700Z,2.17
2023-04-15T23:04:47.100Z,2.47
2023-04-15T23:07:14.338Z,2.83
2023-04-15T23:09:41.519Z,2.67
2023-04-15T23:12:08.552Z,2.55
2023-04-15T23:14:35.856Z,2.10
2023-04-15T23:17:02.890Z,2.90
2023-04-15T23:19:30.126Z,2.50
2023-04-15T23:21:57.227Z,2.60
2023-04-15T23:24:24.502Z,2.45
2023-04-15T23:26:53.177Z,2.58
2023-04-15T23:29:20.559Z,2.03
2023-04-15T23:31:47.671Z,2.38
2023-04-15T23:34:14.997Z,2.13
2023-04-15T23:36:41.987Z,2.22
2023-04-15T23:39:09.395Z,2.58
2023-04-15T23:41:36.776Z,2.47
2023-04-15T23:44:03.966Z,2.78
2023-04-15T23:46:31.208Z,2.28
2023-04-15T23:48:58.282Z,3.00
2023-04-15T23:51:25.541Z,2.15
2023-04-15T23:53:52.573Z,2.78
2023-04-15T23:56:19.861Z,2.33
2023-04-15T23:58:46.932Z,2.72
